Yacolt, Washington
Current Conditions -  °F | °C
As of 3:53 PM on Monday 24 Nov 2014 (Local Time) from KVUO Reporting Station
Light Rain Light Rain  
Wind Chill: 50°   Ceiling: 4600
Heat Index: 50°   Visibility: 10mi
Dew Point: 46°   Wind: 7mph
Humidity: 86%   Direction: 130°SE
Pressure: 30.28"   Gusts: NA
Location:  45.87°N, 122.41°W
Report Text: KVUO 242353Z AUTO 13006KT 10SM -RA OVC046 10/08 A3028 RMK AO2 RAB39 SLP254 P0000 60000 T01000078 10111 20094 56010
Loading
Personal Weather Stations






























Interactive Weather Map New forecast layout! Learn more

10-Day Weather Forecast

Advertisements
Track Severe Weather on mobile